createdAt,value
2023-03-05T00:02:25.169Z,98714.00
2023-03-05T00:04:58.111Z,98705.00
2023-03-05T00:07:31.206Z,98714.00
2023-03-05T00:10:00.906Z,98725.00
2023-03-05T00:15:23.348Z,98729.00
2023-03-05T00:17:50.356Z,98710.00
2023-03-05T00:20:24.262Z,98721.00
2023-03-05T00:22:51.272Z,98734.00
2023-03-05T00:25:25.202Z,98734.00
2023-03-05T00:28:05.234Z,98722.00
2023-03-05T00:30:32.527Z,98734.00
2023-03-05T00:33:06.166Z,98743.00
2023-03-05T00:35:39.613Z,98738.00
2023-03-05T00:38:13.209Z,98739.00
2023-03-05T00:40:41.500Z,98747.00
2023-03-05T00:43:15.242Z,98734.00
2023-03-05T00:45:42.298Z,98732.00
2023-03-05T00:48:16.236Z,98749.00
2023-03-05T00:50:43.275Z,98721.00
2023-03-05T00:53:17.177Z,98734.00
2023-03-05T00:55:44.131Z,98744.00
2023-03-05T00:58:17.166Z,98745.00
2023-03-05T01:00:44.258Z,98734.00
2023-03-05T01:09:59.474Z,98704.00
2023-03-05T01:16:34.917Z,98725.00
2023-03-05T01:19:08.217Z,98713.00
2023-03-05T01:24:25.220Z,98721.00
2023-03-05T01:26:59.270Z,98707.00
2023-03-05T01:29:26.272Z,98711.00
2023-03-05T01:32:00.315Z,98708.00
2023-03-05T01:34:34.217Z,98705.00
2023-03-05T01:40:21.207Z,98703.00
2023-03-05T01:42:56.181Z,98702.00
2023-03-05T01:45:23.280Z,98698.00
2023-03-05T01:47:57.226Z,98705.00
2023-03-05T01:50:25.037Z,98703.00
2023-03-05T01:53:14.229Z,98684.00
2023-03-05T01:55:41.284Z,98674.00
2023-03-05T01:58:55.678Z,98694.00
2023-03-05T02:01:22.762Z,98666.00
2023-03-05T02:03:49.911Z,98682.00
2023-03-05T02:06:23.202Z,98672.00
2023-03-05T02:09:48.308Z,98693.00
2023-03-05T02:12:15.289Z,98675.00
2023-03-05T02:14:52.181Z,98694.00
2023-03-05T02:18:00.212Z,98699.00
2023-03-05T02:21:03.491Z,98689.00
2023-03-05T02:23:45.964Z,98693.00
2023-03-05T02:26:19.298Z,98659.00
2023-03-05T02:28:58.758Z,98687.00
2023-03-05T02:31:32.290Z,98665.00
2023-03-05T02:33:59.358Z,98674.00
2023-03-05T02:36:33.248Z,98677.00
2023-03-05T02:39:09.288Z,98680.00
2023-03-05T02:42:43.363Z,98668.00
2023-03-05T02:45:24.931Z,98627.00
2023-03-05T02:55:00.299Z,98651.00
2023-03-05T02:57:51.969Z,98623.00
2023-03-05T03:00:37.320Z,98646.00
2023-03-05T03:03:19.846Z,98622.00
2023-03-05T03:05:53.250Z,98649.00
2023-03-05T03:08:20.246Z,98636.00
2023-03-05T03:10:54.299Z,98657.00
2023-03-05T03:13:21.347Z,98644.00
2023-03-05T03:15:55.247Z,98648.00
2023-03-05T03:18:41.085Z,98595.00
2023-03-05T03:21:15.619Z,98617.00
2023-03-05T03:23:49.262Z,98603.00
2023-03-05T03:26:23.274Z,98640.00
2023-03-05T03:28:50.658Z,98602.00
2023-03-05T03:31:24.367Z,98629.00
2023-03-05T03:34:01.286Z,98598.00
2023-03-05T03:36:38.189Z,98631.00
2023-03-05T03:39:05.286Z,98626.00
2023-03-05T03:41:39.255Z,98625.00
2023-03-05T03:44:06.196Z,98617.00
2023-03-05T03:46:33.538Z,98639.00
2023-03-05T03:49:10.972Z,98627.00
2023-03-05T03:51:37.962Z,98623.00
2023-03-05T03:54:11.218Z,98646.00
2023-03-05T03:56:38.214Z,98633.00
2023-03-05T03:59:12.284Z,98634.00
2023-03-05T04:01:39.584Z,98617.00
2023-03-05T04:04:13.344Z,98636.00
2023-03-05T04:06:40.532Z,98625.00
2023-03-05T04:09:17.247Z,98606.00
2023-03-05T04:11:44.361Z,98619.00
2023-03-05T04:14:16.916Z,98625.00
2023-03-05T04:16:56.236Z,98616.00
2023-03-05T04:19:33.280Z,98636.00
2023-03-05T04:22:00.197Z,98607.00
2023-03-05T04:24:27.514Z,98611.00
2023-03-05T04:27:02.518Z,98624.00
2023-03-05T04:29:36.309Z,98636.00
2023-03-05T04:32:10.352Z,98631.00
2023-03-05T04:34:38.071Z,98635.00
2023-03-05T04:37:11.311Z,98624.00
2023-03-05T04:39:38.277Z,98633.00
2023-03-05T04:42:12.263Z,98605.00
2023-03-05T04:44:39.334Z,98611.00
2023-03-05T04:47:13.333Z,98636.00
2023-03-05T04:49:40.316Z,98625.00
2023-03-05T04:52:14.315Z,98626.00
2023-03-05T04:54:41.416Z,98628.00
2023-03-05T04:57:08.505Z,98612.00
2023-03-05T04:59:43.305Z,98616.00
2023-03-05T05:02:10.393Z,98598.00
2023-03-05T05:04:44.305Z,98616.00
2023-03-05T05:07:12.568Z,98595.00
2023-03-05T05:09:46.291Z,98619.00
2023-03-05T05:12:13.364Z,98629.00
2023-03-05T05:14:47.297Z,98627.00
2023-03-05T05:17:21.283Z,98620.00
2023-03-05T05:20:02.514Z,98608.00
2023-03-05T05:22:32.829Z,98626.00
2023-03-05T05:25:06.332Z,98606.00
2023-03-05T05:27:33.491Z,98608.00
2023-03-05T05:30:07.301Z,98601.00
2023-03-05T05:32:34.340Z,98613.00
2023-03-05T05:38:05.316Z,98619.00
2023-03-05T05:40:32.326Z,98621.00
2023-03-05T05:43:05.316Z,98610.00
2023-03-05T05:45:39.496Z,98616.00
2023-03-05T05:48:07.002Z,98610.00
2023-03-05T05:50:34.038Z,98609.00
2023-03-05T05:53:07.273Z,98593.00
2023-03-05T05:55:34.351Z,98615.00
2023-03-05T05:58:08.329Z,98621.00
2023-03-05T06:00:35.310Z,98626.00
2023-03-05T06:03:08.340Z,98630.00
2023-03-05T06:05:53.783Z,98589.00
2023-03-05T06:08:27.448Z,98628.00
2023-03-05T06:10:57.459Z,98610.00
2023-03-05T06:13:31.293Z,98610.00
2023-03-05T06:15:59.642Z,98594.00
2023-03-05T06:18:33.360Z,98630.00
2023-03-05T06:21:09.375Z,98618.00
2023-03-05T06:23:42.315Z,98601.00
2023-03-05T06:26:37.308Z,98609.00
2023-03-05T06:29:11.410Z,98597.00
2023-03-05T06:31:39.338Z,98602.00
2023-03-05T06:34:28.905Z,98624.00
2023-03-05T06:36:58.600Z,98618.00
2023-03-05T06:42:16.034Z,98618.00
2023-03-05T06:44:49.345Z,98629.00
2023-03-05T06:47:22.361Z,98618.00
2023-03-05T06:50:05.374Z,98626.00
2023-03-05T06:52:32.416Z,98608.00
2023-03-05T06:55:06.383Z,98613.00
2023-03-05T06:57:40.313Z,98586.00
2023-03-05T07:00:14.595Z,98628.00
2023-03-05T07:02:56.735Z,98636.00
2023-03-05T07:05:25.794Z,98606.00
2023-03-05T07:07:59.364Z,98613.00
2023-03-05T07:14:10.602Z,98604.00
2023-03-05T07:16:44.373Z,98634.00
2023-03-05T07:19:11.388Z,98613.00
2023-03-05T07:21:45.265Z,98626.00
2023-03-05T07:24:18.311Z,98616.00
2023-03-05T07:26:46.893Z,98619.00
2023-03-05T07:29:14.908Z,98622.00
2023-03-05T07:31:48.344Z,98622.00
2023-03-05T07:34:38.082Z,98619.00
2023-03-05T07:37:11.321Z,98633.00
2023-03-05T07:39:38.252Z,98632.00
2023-03-05T07:42:11.386Z,98612.00
2023-03-05T07:44:44.375Z,98593.00
2023-03-05T07:47:18.313Z,98600.00
2023-03-05T07:49:51.316Z,98614.00
2023-03-05T07:52:24.340Z,98624.00
2023-03-05T07:54:51.280Z,98615.00
2023-03-05T07:57:24.329Z,98625.00
2023-03-05T07:59:51.286Z,98621.00
2023-03-05T08:02:24.356Z,98619.00
2023-03-05T08:05:00.366Z,98622.00
2023-03-05T08:07:36.450Z,98617.00
2023-03-05T08:10:11.335Z,98604.00
2023-03-05T08:12:38.277Z,98608.00
2023-03-05T08:15:12.317Z,98609.00
2023-03-05T08:17:46.372Z,98615.00
2023-03-05T08:20:13.677Z,98609.00
2023-03-05T08:22:40.656Z,98611.00
2023-03-05T08:25:14.351Z,98608.00
2023-03-05T08:28:32.415Z,98585.00
2023-03-05T08:31:07.437Z,98581.00
2023-03-05T08:34:47.709Z,98581.00
2023-03-05T08:36:39.373Z,98594.00
2023-03-05T08:39:06.495Z,98604.00
2023-03-05T08:41:40.346Z,98629.00
2023-03-05T08:44:07.319Z,98621.00
2023-03-05T08:46:34.355Z,98608.00
2023-03-05T08:49:08.504Z,98618.00
2023-03-05T08:52:01.387Z,98618.00
2023-03-05T08:54:31.502Z,98597.00
2023-03-05T08:56:58.585Z,98603.00
2023-03-05T08:59:47.458Z,98569.00
2023-03-05T09:02:14.431Z,98575.00
2023-03-05T09:07:52.534Z,98591.00
2023-03-05T09:10:19.863Z,98568.00
2023-03-05T09:12:53.444Z,98559.00
2023-03-05T09:15:20.598Z,98572.00
2023-03-05T09:17:57.399Z,98574.00
2023-03-05T09:20:28.646Z,98579.00
2023-03-05T09:25:59.854Z,98582.00
2023-03-05T09:28:33.432Z,98557.00
2023-03-05T09:31:06.860Z,98585.00
2023-03-05T09:33:40.460Z,98584.00
2023-03-05T09:36:35.304Z,98578.00
2023-03-05T09:39:09.412Z,98573.00
2023-03-05T09:42:04.327Z,98587.00
2023-03-05T09:45:08.401Z,98581.00
2023-03-05T09:48:14.971Z,98586.00
2023-03-05T09:51:02.431Z,98581.00
2023-03-05T09:54:45.690Z,98570.00
2023-03-05T09:57:33.458Z,98564.00
2023-03-05T10:00:02.734Z,98560.00
2023-03-05T10:02:44.496Z,98538.00
2023-03-05T10:05:27.484Z,98559.00
2023-03-05T10:07:59.888Z,98540.00
2023-03-05T10:10:42.517Z,98560.00
2023-03-05T10:13:48.721Z,98547.00
2023-03-05T10:16:29.956Z,98562.00
2023-03-05T10:19:41.439Z,98556.00
2023-03-05T10:22:28.413Z,98549.00
2023-03-05T10:25:33.449Z,98544.00
2023-03-05T10:28:50.491Z,98548.00
2023-03-05T10:31:40.433Z,98537.00
2023-03-05T10:34:35.449Z,98537.00
2023-03-05T10:37:36.503Z,98540.00
2023-03-05T10:40:35.442Z,98531.00
2023-03-05T10:43:27.884Z,98518.00
2023-03-05T10:46:01.480Z,98526.00
2023-03-05T10:48:45.073Z,98522.00
2023-03-05T10:51:45.510Z,98512.00
2023-03-05T10:54:25.434Z,98508.00
2023-03-05T10:57:23.491Z,98509.00
2023-03-05T11:00:01.146Z,98499.00
2023-03-05T11:02:34.526Z,98509.00
2023-03-05T11:05:08.458Z,98494.00
2023-03-05T11:07:42.488Z,98493.00
2023-03-05T11:10:18.365Z,98491.00
2023-03-05T11:12:52.469Z,98485.00
2023-03-05T11:15:28.976Z,98485.00
2023-03-05T11:18:34.567Z,98479.00
2023-03-05T11:21:18.573Z,98487.00
2023-03-05T11:24:12.449Z,98479.00
2023-03-05T11:26:59.475Z,98467.00
2023-03-05T11:29:40.494Z,98481.00
2023-03-05T11:32:22.695Z,98467.00
2023-03-05T11:35:03.319Z,98467.00
2023-03-05T11:37:31.721Z,98447.00
2023-03-05T11:40:17.665Z,98452.00
2023-03-05T11:42:44.774Z,98445.00
2023-03-05T11:45:17.102Z,98448.00
2023-03-05T11:47:58.500Z,98436.00
2023-03-05T11:50:38.573Z,98432.00
2023-03-05T11:53:25.575Z,98440.00
2023-03-05T11:56:00.583Z,98417.00
2023-03-05T11:58:51.500Z,98433.00
2023-03-05T12:01:24.382Z,98437.00
2023-03-05T12:03:58.661Z,98414.00
2023-03-05T12:06:58.521Z,98423.00
2023-03-05T12:09:42.802Z,98416.00
2023-03-05T12:12:35.526Z,98409.00
2023-03-05T12:15:17.526Z,98390.00
2023-03-05T12:18:34.636Z,98397.00
2023-03-05T12:21:23.515Z,98389.00
2023-03-05T12:24:02.543Z,98380.00
2023-03-05T12:27:10.581Z,98376.00
2023-03-05T12:29:52.309Z,98372.00
2023-03-05T12:32:31.680Z,98368.00
2023-03-05T12:35:02.448Z,98353.00
2023-03-05T12:37:35.552Z,98336.00
2023-03-05T12:40:05.849Z,98349.00
2023-03-05T12:42:32.829Z,98340.00
2023-03-05T12:45:18.583Z,98335.00
2023-03-05T12:47:57.836Z,98335.00
2023-03-05T12:50:37.520Z,98327.00
2023-03-05T12:53:10.552Z,98329.00
2023-03-05T12:55:43.231Z,98325.00
2023-03-05T12:58:49.592Z,98318.00
2023-03-05T13:01:40.539Z,98311.00
2023-03-05T13:04:14.956Z,98312.00
2023-03-05T13:06:48.536Z,98320.00
2023-03-05T13:09:24.849Z,98307.00
2023-03-05T13:11:59.691Z,98298.00
2023-03-05T13:14:37.790Z,98296.00
2023-03-05T13:17:36.575Z,98281.00
2023-03-05T13:20:36.593Z,98264.00
2023-03-05T13:23:24.006Z,98293.00
2023-03-05T13:26:23.503Z,98286.00
2023-03-05T13:29:20.903Z,98271.00
2023-03-05T13:32:25.654Z,98279.00
2023-03-05T13:34:54.138Z,98269.00
2023-03-05T13:37:44.597Z,98266.00
2023-03-05T13:40:25.415Z,98267.00
2023-03-05T13:42:59.566Z,98256.00
2023-03-05T13:45:31.300Z,98261.00
2023-03-05T13:48:10.552Z,98260.00
2023-03-05T13:50:39.585Z,98250.00
2023-03-05T13:53:23.601Z,98248.00
2023-03-05T13:55:53.017Z,98237.00
2023-03-05T13:58:55.575Z,98237.00
2023-03-05T14:01:42.595Z,98244.00
2023-03-05T14:04:28.659Z,98241.00
2023-03-05T14:07:27.549Z,98233.00
2023-03-05T14:09:54.688Z,98229.00
2023-03-05T14:12:42.574Z,98231.00
2023-03-05T14:15:29.960Z,98229.00
2023-03-05T14:18:19.025Z,98223.00
2023-03-05T14:20:59.579Z,98222.00
2023-03-05T14:23:43.574Z,98218.00
2023-03-05T14:26:31.054Z,98208.00
2023-03-05T14:29:22.575Z,98219.00
2023-03-05T14:31:54.083Z,98208.00
2023-03-05T14:34:42.568Z,98204.00
2023-03-05T14:37:41.709Z,98204.00
2023-03-05T14:40:14.647Z,98200.00
2023-03-05T14:42:41.490Z,98191.00
2023-03-05T14:45:21.619Z,98196.00
2023-03-05T14:47:50.185Z,98187.00
2023-03-05T14:50:31.627Z,98181.00
2023-03-05T14:53:01.648Z,98183.00
2023-03-05T14:55:37.639Z,98180.00
2023-03-05T14:58:15.392Z,98180.00
2023-03-05T15:00:51.120Z,98170.00
2023-03-05T15:03:18.560Z,98175.00
2023-03-05T15:05:53.601Z,98176.00
2023-03-05T15:08:29.319Z,98166.00
2023-03-05T15:11:02.669Z,98162.00
2023-03-05T15:13:29.633Z,98138.00
2023-03-05T15:15:56.638Z,98151.00
2023-03-05T15:18:30.597Z,98157.00
2023-03-05T15:21:03.658Z,98156.00
2023-03-05T15:23:30.666Z,98139.00
2023-03-05T15:26:04.620Z,98152.00
2023-03-05T15:28:33.712Z,98152.00
2023-03-05T15:31:07.681Z,98141.00
2023-03-05T15:33:34.740Z,98130.00
2023-03-05T15:36:08.654Z,98141.00
2023-03-05T15:38:35.549Z,98140.00
2023-03-05T15:41:08.639Z,98140.00
2023-03-05T15:43:36.882Z,98130.00
2023-03-05T15:46:06.405Z,98137.00
2023-03-05T15:48:39.636Z,98130.00
2023-03-05T15:51:07.486Z,98133.00
2023-03-05T15:53:40.662Z,98133.00
2023-03-05T15:56:09.184Z,98124.00
2023-03-05T15:58:42.672Z,98114.00
2023-03-05T16:01:11.614Z,98116.00
2023-03-05T16:03:45.670Z,98125.00
2023-03-05T16:08:46.463Z,98131.00
2023-03-05T16:11:19.683Z,98102.00
2023-03-05T16:13:53.686Z,98109.00
2023-03-05T16:16:20.626Z,98114.00
2023-03-05T16:18:47.562Z,98122.00
2023-03-05T16:21:20.698Z,98132.00
2023-03-05T16:23:47.692Z,98128.00
2023-03-05T16:26:20.686Z,98127.00
2023-03-05T16:28:47.635Z,98128.00
2023-03-05T16:31:20.693Z,98130.00
2023-03-05T16:33:47.637Z,98129.00
2023-03-05T16:36:27.649Z,98129.00
2023-03-05T16:38:56.524Z,98121.00
2023-03-05T16:41:24.365Z,98122.00
2023-03-05T16:44:00.680Z,98127.00
2023-03-05T16:46:29.048Z,98106.00
2023-03-05T16:49:02.684Z,98100.00
2023-03-05T16:51:36.704Z,98118.00
2023-03-05T16:54:10.675Z,98120.00
2023-03-05T16:56:37.788Z,98112.00
2023-03-05T16:59:11.730Z,98127.00
2023-03-05T17:01:38.716Z,98123.00
2023-03-05T17:04:05.703Z,98118.00
2023-03-05T17:06:39.673Z,98132.00
2023-03-05T17:09:13.669Z,98132.00
2023-03-05T17:11:40.626Z,98140.00
2023-03-05T17:14:13.795Z,98136.00
2023-03-05T17:16:40.775Z,98127.00
2023-03-05T17:19:14.711Z,98130.00
2023-03-05T17:21:47.698Z,98134.00
2023-03-05T17:24:14.620Z,98138.00
2023-03-05T17:26:47.723Z,98135.00
2023-03-05T17:29:14.640Z,98128.00
2023-03-05T17:31:41.607Z,98141.00
2023-03-05T17:34:14.747Z,98142.00
2023-03-05T17:36:47.715Z,98126.00
2023-03-05T17:39:20.746Z,98131.00
2023-03-05T17:41:47.738Z,98135.00
2023-03-05T17:44:20.668Z,98137.00
2023-03-05T17:46:53.714Z,98141.00
2023-03-05T17:49:20.593Z,98130.00
2023-03-05T17:51:53.724Z,98146.00
2023-03-05T17:54:26.755Z,98146.00
2023-03-05T17:56:57.053Z,98141.00
2023-03-05T17:59:24.573Z,98152.00
2023-03-05T18:01:57.717Z,98158.00
2023-03-05T18:04:30.776Z,98170.00
2023-03-05T18:07:04.773Z,98156.00
2023-03-05T18:09:31.897Z,98154.00
2023-03-05T18:12:05.751Z,98156.00
2023-03-05T18:14:32.780Z,98162.00
2023-03-05T18:17:05.711Z,98144.00
2023-03-05T18:19:32.643Z,98156.00
2023-03-05T18:22:05.732Z,98156.00
2023-03-05T18:24:39.717Z,98153.00
2023-03-05T18:27:07.003Z,98145.00
2023-03-05T18:29:40.744Z,98154.00
2023-03-05T18:32:15.865Z,98142.00
2023-03-05T18:34:50.725Z,98155.00
2023-03-05T18:37:17.779Z,98161.00
2023-03-05T18:39:57.811Z,98150.00
2023-03-05T18:42:24.800Z,98156.00
2023-03-05T18:44:51.804Z,98156.00
2023-03-05T18:47:25.702Z,98148.00
2023-03-05T18:49:58.764Z,98150.00
2023-03-05T18:52:25.682Z,98152.00
2023-03-05T18:54:58.709Z,98154.00
2023-03-05T18:57:32.768Z,98162.00
2023-03-05T18:59:59.699Z,98153.00
2023-03-05T19:02:32.713Z,98147.00
2023-03-05T19:04:59.635Z,98143.00
2023-03-05T19:07:33.812Z,98152.00
2023-03-05T19:10:01.160Z,98142.00
2023-03-05T19:12:35.782Z,98151.00
2023-03-05T19:15:09.735Z,98161.00
2023-03-05T19:17:42.790Z,98156.00
2023-03-05T19:20:18.746Z,98152.00
2023-03-05T19:22:51.794Z,98162.00
2023-03-05T19:25:18.834Z,98162.00
2023-03-05T19:27:51.841Z,98150.00
2023-03-05T19:30:18.977Z,98158.00
2023-03-05T19:32:52.782Z,98159.00
2023-03-05T19:35:19.895Z,98161.00
2023-03-05T19:37:46.849Z,98176.00
2023-03-05T19:40:20.775Z,98179.00
2023-03-05T19:42:47.726Z,98168.00
2023-03-05T19:45:21.757Z,98160.00
2023-03-05T19:47:48.754Z,98156.00
2023-03-05T19:50:22.793Z,98175.00
2023-03-05T19:52:49.822Z,98168.00
2023-03-05T19:55:23.792Z,98173.00
2023-03-05T19:57:50.701Z,98168.00
2023-03-05T20:00:24.787Z,98173.00
2023-03-05T20:02:51.742Z,98180.00
2023-03-05T20:05:25.757Z,98190.00
2023-03-05T20:07:53.342Z,98188.00
2023-03-05T20:10:26.758Z,98191.00
2023-03-05T20:12:53.694Z,98190.00
2023-03-05T20:15:27.796Z,98186.00
2023-03-05T20:17:56.756Z,98171.00
2023-03-05T20:20:30.841Z,98191.00
2023-03-05T20:22:58.098Z,98187.00
2023-03-05T20:25:31.803Z,98191.00
2023-03-05T20:27:58.811Z,98186.00
2023-03-05T20:30:32.787Z,98184.00
2023-03-05T20:32:59.818Z,98185.00
2023-03-05T20:35:26.820Z,98180.00
2023-03-05T20:38:27.755Z,98182.00
2023-03-05T20:40:56.212Z,98181.00
2023-03-05T20:43:29.835Z,98178.00
2023-03-05T20:45:57.026Z,98187.00
2023-03-05T20:48:31.846Z,98170.00
2023-03-05T20:51:05.847Z,98171.00
2023-03-05T20:53:32.806Z,98201.00
2023-03-05T20:55:59.831Z,98189.00
2023-03-05T20:58:33.813Z,98189.00
2023-03-05T21:01:00.814Z,98187.00
2023-03-05T21:03:34.826Z,98190.00
2023-03-05T21:06:03.081Z,98189.00
2023-03-05T21:08:36.826Z,98197.00
2023-03-05T21:11:10.058Z,98198.00
2023-03-05T21:13:43.855Z,98198.00
2023-03-05T21:16:17.536Z,98194.00
2023-03-05T21:18:50.874Z,98190.00
2023-03-05T21:21:18.327Z,98179.00
2023-03-05T21:23:51.817Z,98192.00
2023-03-05T21:26:18.829Z,98190.00
2023-03-05T21:28:51.870Z,98192.00
2023-03-05T21:31:21.060Z,98181.00
2023-03-05T21:33:54.875Z,98186.00
2023-03-05T21:36:21.873Z,98179.00
2023-03-05T21:38:55.847Z,98186.00
2023-03-05T21:44:43.819Z,98185.00
2023-03-05T21:47:10.854Z,98169.00
2023-03-05T21:49:43.869Z,98179.00
2023-03-05T21:52:17.880Z,98177.00
2023-03-05T21:54:50.838Z,98180.00
2023-03-05T21:57:23.817Z,98173.00
2023-03-05T21:59:56.911Z,98178.00
2023-03-05T22:02:30.893Z,98181.00
2023-03-05T22:04:58.715Z,98163.00
2023-03-05T22:07:31.894Z,98158.00
2023-03-05T22:09:59.132Z,98158.00
2023-03-05T22:13:23.830Z,98173.00
2023-03-05T22:15:54.749Z,98159.00
2023-03-05T22:18:30.818Z,98163.00
2023-03-05T22:21:04.852Z,98174.00
2023-03-05T22:23:32.433Z,98166.00
2023-03-05T22:26:11.855Z,98152.00
2023-03-05T22:28:38.849Z,98169.00
2023-03-05T22:31:12.907Z,98163.00
2023-03-05T22:33:39.991Z,98156.00
2023-03-05T22:36:11.531Z,98159.00
2023-03-05T22:38:44.854Z,98141.00
2023-03-05T22:41:22.856Z,98149.00
2023-03-05T22:44:08.324Z,98156.00
2023-03-05T22:46:41.853Z,98153.00
2023-03-05T22:49:08.812Z,98157.00
2023-03-05T22:51:41.906Z,98163.00
2023-03-05T22:54:08.855Z,98147.00
2023-03-05T22:56:42.822Z,98162.00
2023-03-05T22:59:09.724Z,98168.00
2023-03-05T23:01:42.860Z,98161.00
2023-03-05T23:04:48.240Z,98162.00
2023-03-05T23:07:26.886Z,98147.00
2023-03-05T23:10:01.723Z,98156.00
2023-03-05T23:12:36.852Z,98144.00
2023-03-05T23:15:07.363Z,98159.00
2023-03-05T23:17:40.910Z,98159.00
2023-03-05T23:20:09.124Z,98148.00
2023-03-05T23:22:43.840Z,98151.00
2023-03-05T23:25:12.157Z,98152.00
2023-03-05T23:27:45.864Z,98137.00
2023-03-05T23:30:19.675Z,98155.00
2023-03-05T23:33:12.918Z,98137.00
2023-03-05T23:35:59.516Z,98153.00
2023-03-05T23:38:34.873Z,98148.00
2023-03-05T23:41:01.808Z,98133.00
2023-03-05T23:43:29.087Z,98132.00
2023-03-05T23:46:02.968Z,98147.00
2023-03-05T23:48:30.307Z,98148.00
2023-03-05T23:51:03.869Z,98144.00
2023-03-05T23:53:30.834Z,98146.00
2023-03-05T23:56:03.887Z,98133.00
2023-03-05T23:58:30.811Z,98132.00
